Terminal Aerodrome Forecast
Issued by NWS Duluth, MN

Home | Current Version | Previous Version | Text Only | Print | Product List | Glossary On
Versions: 1 2 3 4 5 6 7 8 9 10 11 12 13 14 15 16 17 18 19 20 21 22 23 24
000
FTUS43 KDLH 242300
TAFDLH
TAF
KDLH 242336Z 2500/2524 14006KT P6SM SCT050 BKN150
      TEMPO 2508/2511 4SM TSRA BR BKN035CB
     FM251500 20007KT P6SM VCSH SCT050 BKN100=

USA.gov is the U.S. government's official web portal to all federal, state and local government web resources and services.